createdAt,value
2019-02-09T00:02:06.546Z,54.87
2019-02-09T00:04:36.966Z,52.40
2019-02-09T00:07:07.252Z,51.90
2019-02-09T00:09:37.522Z,53.53
2019-02-09T00:12:07.827Z,54.67
2019-02-09T00:14:38.118Z,56.67
2019-02-09T00:17:08.381Z,57.27
2019-02-09T00:19:38.663Z,51.93
2019-02-09T00:22:08.911Z,55.83
2019-02-09T00:24:39.321Z,53.67
2019-02-09T00:27:09.543Z,51.17
2019-02-09T00:29:46.106Z,53.23
2019-02-09T00:32:11.805Z,55.67
2019-02-09T00:34:42.085Z,53.53
2019-02-09T00:37:12.363Z,53.87
2019-02-09T00:39:42.667Z,54.53
2019-02-09T00:42:12.946Z,55.33
2019-02-09T00:44:43.259Z,54.00
2019-02-09T00:47:13.627Z,50.73
2019-02-09T00:49:43.870Z,52.33
2019-02-09T00:52:14.114Z,51.00
2019-02-09T00:54:44.430Z,49.80
2019-02-09T00:57:14.691Z,50.33
2019-02-09T00:59:44.951Z,51.43
2019-02-09T01:02:15.277Z,54.27
2019-02-09T01:04:45.543Z,49.10
2019-02-09T01:07:15.886Z,51.97
2019-02-09T01:09:46.364Z,49.63
2019-02-09T01:12:16.829Z,50.77
2019-02-09T01:14:47.112Z,50.80
2019-02-09T01:17:17.454Z,52.23
2019-02-09T01:19:47.809Z,53.97
2019-02-09T01:22:18.084Z,53.60
2019-02-09T01:24:48.395Z,50.63
2019-02-09T01:27:18.616Z,52.73
2019-02-09T01:29:48.895Z,53.67
2019-02-09T01:32:19.281Z,52.60
2019-02-09T01:34:50.510Z,52.50
2019-02-09T01:37:20.880Z,56.03
2019-02-09T01:39:51.255Z,54.83
2019-02-09T01:42:21.510Z,50.70
2019-02-09T01:44:51.711Z,51.77
2019-02-09T01:47:22.049Z,52.30
2019-02-09T01:49:52.409Z,53.57
2019-02-09T01:52:22.827Z,51.17
2019-02-09T01:54:53.178Z,53.97
2019-02-09T01:57:23.423Z,52.80
2019-02-09T01:59:53.697Z,51.67
2019-02-09T02:02:24.194Z,54.97
2019-02-09T02:04:54.547Z,56.10
2019-02-09T02:07:24.854Z,55.93
2019-02-09T02:09:55.209Z,53.30
2019-02-09T02:12:25.509Z,53.97
2019-02-09T02:14:55.831Z,52.30
2019-02-09T02:17:26.172Z,54.17
2019-02-09T02:19:56.774Z,52.23
2019-02-09T02:22:28.757Z,52.03
2019-02-09T02:24:59.115Z,49.53
2019-02-09T02:27:29.405Z,50.13
2019-02-09T02:29:59.832Z,49.77
2019-02-09T02:32:30.091Z,48.73
2019-02-09T02:35:00.426Z,47.43
2019-02-09T02:37:31.688Z,47.20
2019-02-09T02:40:05.086Z,47.77
2019-02-09T02:42:35.325Z,46.27
2019-02-09T02:45:06.808Z,45.57
2019-02-09T02:47:37.577Z,45.97
2019-02-09T02:50:09.350Z,49.50
2019-02-09T02:52:39.591Z,46.33
2019-02-09T02:55:11.044Z,50.73
2019-02-09T02:57:41.480Z,50.47
2019-02-09T03:00:14.848Z,46.93
2019-02-09T03:02:45.098Z,47.43
2019-02-09T03:05:17.604Z,49.13
2019-02-09T03:07:47.911Z,48.37
2019-02-09T03:10:18.522Z,47.60
2019-02-09T03:12:48.857Z,53.23
2019-02-09T03:15:25.156Z,51.23
2019-02-09T03:17:55.561Z,50.40
2019-02-09T03:20:26.239Z,51.40
2019-02-09T03:22:56.552Z,49.17
2019-02-09T03:25:28.769Z,52.47
2019-02-09T03:27:59.203Z,51.23
2019-02-09T03:30:29.480Z,49.67
2019-02-09T03:32:59.891Z,54.07
2019-02-09T03:35:30.293Z,52.90
2019-02-09T03:38:01.613Z,51.00
2019-02-09T03:40:31.892Z,49.10
2019-02-09T03:43:02.169Z,47.67
2019-02-09T03:45:32.861Z,49.00
2019-02-09T03:48:03.568Z,50.07
2019-02-09T03:50:34.166Z,52.70
2019-02-09T03:53:04.834Z,53.00
2019-02-09T03:55:34.991Z,51.30
2019-02-09T03:58:05.371Z,47.77
2019-02-09T04:00:35.792Z,49.60
2019-02-09T04:03:06.519Z,48.23
2019-02-09T04:05:37.014Z,47.40
2019-02-09T04:08:07.307Z,46.73
2019-02-09T04:10:37.530Z,49.00
2019-02-09T04:13:07.855Z,49.63
2019-02-09T04:15:38.317Z,46.93
2019-02-09T04:18:08.595Z,49.80
2019-02-09T04:20:38.872Z,50.83
2019-02-09T04:23:09.176Z,46.87
2019-02-09T04:25:39.498Z,47.10
2019-02-09T04:28:10.032Z,47.90
2019-02-09T04:30:40.427Z,47.53
2019-02-09T04:33:10.759Z,42.50
2019-02-09T04:35:41.116Z,44.67
2019-02-09T04:38:11.382Z,44.27
2019-02-09T04:40:42.603Z,41.13
2019-02-09T04:43:12.953Z,42.27
2019-02-09T04:45:43.219Z,40.67
2019-02-09T04:48:13.539Z,41.67
2019-02-09T04:50:43.910Z,42.87
2019-02-09T04:53:14.136Z,41.30
2019-02-09T04:55:44.311Z,39.83
2019-02-09T04:58:14.643Z,40.47
2019-02-09T05:00:44.901Z,40.63
2019-02-09T05:03:15.155Z,37.90
2019-02-09T05:05:45.435Z,39.93
2019-02-09T05:08:15.679Z,40.70
2019-02-09T05:10:45.918Z,38.40
2019-02-09T05:13:16.283Z,39.97
2019-02-09T05:15:46.593Z,36.67
2019-02-09T05:18:16.895Z,36.63
2019-02-09T05:20:47.251Z,36.37
2019-02-09T05:23:17.521Z,36.43
2019-02-09T05:25:47.778Z,36.13
2019-02-09T05:28:18.146Z,35.53
2019-02-09T05:30:48.392Z,37.73
2019-02-09T05:33:19.969Z,36.33
2019-02-09T05:35:50.461Z,36.43
2019-02-09T05:38:21.064Z,39.37
2019-02-09T05:40:54.741Z,37.03
2019-02-09T05:43:26.395Z,38.20
2019-02-09T05:45:56.690Z,37.33
2019-02-09T05:48:27.078Z,37.93
2019-02-09T05:50:57.631Z,37.57
2019-02-09T05:53:28.073Z,37.33
2019-02-09T05:55:58.508Z,39.03
2019-02-09T05:58:28.876Z,41.67
2019-02-09T06:00:59.205Z,37.73
2019-02-09T06:03:29.488Z,38.00
2019-02-09T06:05:59.886Z,37.90
2019-02-09T06:08:30.015Z,40.23
2019-02-09T06:11:00.225Z,40.80
2019-02-09T06:13:37.164Z,41.93
2019-02-09T06:16:07.547Z,40.60
2019-02-09T06:18:37.774Z,42.43
2019-02-09T06:21:08.175Z,42.93
2019-02-09T06:23:38.381Z,41.03
2019-02-09T06:26:08.755Z,39.50
2019-02-09T06:28:39.096Z,41.43
2019-02-09T06:31:09.392Z,40.27
2019-02-09T06:33:39.717Z,38.60
2019-02-09T06:36:10.175Z,36.13
2019-02-09T06:38:40.437Z,35.93
2019-02-09T06:41:10.689Z,36.23
2019-02-09T06:43:41.093Z,34.83
2019-02-09T06:46:12.346Z,35.17
2019-02-09T06:48:42.597Z,36.93
2019-02-09T06:51:12.941Z,35.63
2019-02-09T06:53:43.200Z,35.30
2019-02-09T06:56:13.374Z,34.73
2019-02-09T06:58:43.734Z,37.00
2019-02-09T07:01:14.015Z,34.40
2019-02-09T07:03:44.210Z,32.83
2019-02-09T07:06:15.059Z,32.33
2019-02-09T07:08:45.359Z,35.17
2019-02-09T07:11:15.596Z,32.77
2019-02-09T07:13:45.975Z,30.17
2019-02-09T07:16:16.232Z,29.53
2019-02-09T07:18:46.463Z,31.17
2019-02-09T07:21:16.848Z,28.33
2019-02-09T07:23:47.271Z,29.97
2019-02-09T07:26:17.651Z,30.10
2019-02-09T07:28:47.975Z,29.63
2019-02-09T07:31:18.301Z,29.17
2019-02-09T07:33:48.630Z,28.13
2019-02-09T07:36:19.012Z,28.73
2019-02-09T07:38:49.375Z,30.97
2019-02-09T07:41:19.648Z,31.03
2019-02-09T07:43:49.933Z,30.10
2019-02-09T07:46:20.448Z,29.37
2019-02-09T07:48:51.954Z,28.93
2019-02-09T07:51:24.113Z,31.20
2019-02-09T07:53:55.633Z,29.87
2019-02-09T07:56:27.326Z,28.80
2019-02-09T07:58:57.746Z,30.33
2019-02-09T08:01:29.385Z,28.07
2019-02-09T08:04:00.166Z,29.00
2019-02-09T08:06:31.822Z,29.63
2019-02-09T08:09:03.293Z,31.27
2019-02-09T08:11:33.581Z,32.43
2019-02-09T08:14:03.937Z,33.07
2019-02-09T08:16:34.327Z,33.57
2019-02-09T08:19:04.738Z,33.83
2019-02-09T08:21:35.027Z,33.07
2019-02-09T08:24:07.237Z,37.00
2019-02-09T08:26:37.357Z,39.67
2019-02-09T08:29:07.562Z,40.40
2019-02-09T08:31:37.998Z,42.80
2019-02-09T08:34:08.261Z,43.00
2019-02-09T08:36:38.559Z,41.93
2019-02-09T08:39:09.988Z,41.53
2019-02-09T08:41:40.252Z,42.43
2019-02-09T08:44:10.689Z,44.93
2019-02-09T08:46:41.139Z,42.83
2019-02-09T08:49:12.392Z,45.73
2019-02-09T08:51:42.651Z,43.30
2019-02-09T08:54:12.931Z,41.87
2019-02-09T08:56:43.233Z,42.63
2019-02-09T08:59:13.558Z,43.50
2019-02-09T09:01:43.904Z,41.93
2019-02-09T09:04:14.166Z,42.50
2019-02-09T09:06:44.449Z,44.13
2019-02-09T09:09:14.903Z,43.87
2019-02-09T09:11:45.260Z,44.83
2019-02-09T09:14:15.570Z,42.80
2019-02-09T09:16:45.871Z,43.10
2019-02-09T09:19:16.127Z,41.90
2019-02-09T09:21:46.553Z,42.53
2019-02-09T09:24:16.968Z,42.87
2019-02-09T09:26:47.247Z,36.83
2019-02-09T09:29:17.479Z,34.23
2019-02-09T09:31:47.799Z,27.37
2019-02-09T09:34:18.085Z,28.57
2019-02-09T09:36:48.386Z,26.63
2019-02-09T09:39:18.641Z,28.43
2019-02-09T09:41:48.950Z,29.20
2019-02-09T09:44:19.274Z,27.60
2019-02-09T09:46:49.802Z,25.77
2019-02-09T09:49:20.098Z,28.00
2019-02-09T09:51:51.359Z,28.50
2019-02-09T09:54:21.770Z,30.10
2019-02-09T09:56:52.121Z,30.07
2019-02-09T09:59:22.400Z,28.63
2019-02-09T10:01:52.723Z,28.30
2019-02-09T10:04:22.984Z,30.87
2019-02-09T10:06:53.291Z,30.13
2019-02-09T10:09:23.578Z,32.27
2019-02-09T10:11:53.815Z,33.27
2019-02-09T10:14:24.079Z,32.97
2019-02-09T10:16:54.426Z,31.63
2019-02-09T10:19:24.679Z,30.97
2019-02-09T10:21:54.984Z,32.77
2019-02-09T10:24:25.320Z,34.30
2019-02-09T10:26:55.698Z,31.70
2019-02-09T10:29:25.980Z,34.30
2019-02-09T10:31:56.258Z,34.17
2019-02-09T10:34:26.558Z,32.60
2019-02-09T10:36:56.836Z,31.70
2019-02-09T10:39:27.133Z,34.57
2019-02-09T10:41:57.394Z,34.23
2019-02-09T10:44:27.619Z,35.43
2019-02-09T10:47:04.361Z,33.53
2019-02-09T10:49:34.609Z,35.00
2019-02-09T10:52:04.939Z,35.47
2019-02-09T10:54:36.239Z,34.50
2019-02-09T10:57:06.491Z,40.87
2019-02-09T10:59:36.730Z,41.30
2019-02-09T11:02:07.146Z,39.93
2019-02-09T11:04:37.391Z,36.27
2019-02-09T11:07:07.926Z,42.40
2019-02-09T11:09:38.271Z,38.40
2019-02-09T11:12:08.536Z,40.87
2019-02-09T11:14:38.771Z,38.87
2019-02-09T11:17:09.081Z,40.43
2019-02-09T11:19:39.339Z,40.73
2019-02-09T11:22:09.778Z,41.00
2019-02-09T11:24:40.121Z,40.13
2019-02-09T11:27:10.431Z,39.70
2019-02-09T11:29:40.748Z,39.50
2019-02-09T11:32:11.124Z,41.07
2019-02-09T11:34:52.807Z,41.10
2019-02-09T11:37:29.354Z,42.73
2019-02-09T11:39:59.583Z,40.40
2019-02-09T11:42:29.911Z,41.87
2019-02-09T11:45:00.302Z,39.87
2019-02-09T11:47:31.992Z,41.50
2019-02-09T11:50:02.388Z,44.80
2019-02-09T11:52:33.393Z,42.13
2019-02-09T11:55:11.028Z,43.00
2019-02-09T11:57:41.454Z,41.43
2019-02-09T12:00:19.271Z,41.77
2019-02-09T12:02:51.463Z,43.93
2019-02-09T12:05:25.030Z,44.73
2019-02-09T12:07:57.219Z,43.17
2019-02-09T12:10:28.320Z,55.43
2019-02-09T12:12:59.052Z,59.57
2019-02-09T12:15:33.373Z,40.27
2019-02-09T12:18:06.414Z,64.67
2019-02-09T12:20:38.288Z,35.20
2019-02-09T12:23:08.848Z,44.47
2019-02-09T12:25:41.226Z,48.60
2019-02-09T12:28:13.673Z,62.23
2019-02-09T12:30:45.975Z,37.77
2019-02-09T12:33:23.195Z,40.93
2019-02-09T12:35:51.838Z,61.17
2019-02-09T12:38:23.821Z,44.50
2019-02-09T12:40:55.781Z,41.30
2019-02-09T12:43:26.659Z,43.90
2019-02-09T12:45:57.774Z,43.63
2019-02-09T12:48:28.562Z,40.00
2019-02-09T12:51:01.009Z,45.40
2019-02-09T12:53:33.091Z,42.63
2019-02-09T12:56:07.213Z,46.50
2019-02-09T12:58:37.687Z,41.87
2019-02-09T13:01:09.886Z,42.63
2019-02-09T13:03:40.242Z,49.37
2019-02-09T13:06:10.619Z,44.10
2019-02-09T13:08:42.279Z,46.73
2019-02-09T13:11:12.652Z,44.37
2019-02-09T13:13:48.734Z,43.10
2019-02-09T13:16:20.786Z,44.80
2019-02-09T13:18:52.599Z,41.17
2019-02-09T13:21:24.382Z,43.50
2019-02-09T13:23:56.043Z,45.97
2019-02-09T13:26:26.650Z,39.50
2019-02-09T13:28:56.875Z,42.73
2019-02-09T13:31:27.821Z,41.80
2019-02-09T13:33:58.548Z,43.20
2019-02-09T13:36:31.067Z,40.27
2019-02-09T13:39:02.709Z,39.97
2019-02-09T13:41:33.691Z,38.80
2019-02-09T13:44:04.374Z,40.73
2019-02-09T13:46:34.625Z,39.53
2019-02-09T13:49:04.856Z,40.23
2019-02-09T13:51:35.131Z,41.27
2019-02-09T13:54:05.707Z,37.87
2019-02-09T13:56:37.278Z,40.27
2019-02-09T13:59:08.308Z,40.47
2019-02-09T14:01:40.242Z,44.00
2019-02-09T14:04:10.494Z,42.03
2019-02-09T14:06:40.700Z,44.30
2019-02-09T14:09:11.038Z,42.27
2019-02-09T14:11:41.280Z,46.57
2019-02-09T14:14:11.584Z,45.90
2019-02-09T14:16:43.693Z,39.43
2019-02-09T14:19:15.747Z,42.77
2019-02-09T14:21:49.384Z,43.33
2019-02-09T14:24:24.737Z,43.63
2019-02-09T14:26:56.299Z,41.20
2019-02-09T14:29:27.853Z,44.43
2019-02-09T14:32:02.230Z,45.80
2019-02-09T14:34:34.014Z,41.53
2019-02-09T14:37:04.316Z,39.93
2019-02-09T14:39:34.623Z,42.33
2019-02-09T14:42:05.058Z,39.30
2019-02-09T14:44:35.569Z,40.10
2019-02-09T14:47:06.071Z,36.23
2019-02-09T14:49:36.318Z,41.67
2019-02-09T14:52:06.778Z,44.60
2019-02-09T14:54:37.078Z,42.47
2019-02-09T14:57:07.384Z,44.70
2019-02-09T14:59:38.763Z,41.77
2019-02-09T15:02:09.152Z,44.23
2019-02-09T15:04:39.495Z,42.13
2019-02-09T15:07:10.015Z,46.67
2019-02-09T15:09:40.323Z,44.53
2019-02-09T15:12:11.875Z,43.53
2019-02-09T15:14:47.379Z,46.20
2019-02-09T15:17:24.557Z,44.73
2019-02-09T15:20:00.278Z,43.90
2019-02-09T15:22:33.564Z,41.20
2019-02-09T15:25:09.544Z,41.63
2019-02-09T15:27:45.410Z,45.07
2019-02-09T15:30:20.123Z,42.30
2019-02-09T15:32:51.690Z,39.70
2019-02-09T15:35:27.401Z,44.83
2019-02-09T15:38:00.261Z,48.37
2019-02-09T15:40:35.454Z,46.30
2019-02-09T15:43:08.551Z,41.60
2019-02-09T15:45:40.402Z,43.90
2019-02-09T15:48:14.315Z,42.07
2019-02-09T15:50:45.833Z,43.27
2019-02-09T15:53:17.760Z,43.30
2019-02-09T15:55:50.170Z,44.60
2019-02-09T15:58:25.823Z,42.80
2019-02-09T16:01:01.704Z,42.47
2019-02-09T16:03:33.813Z,45.87
2019-02-09T16:06:07.778Z,43.70
2019-02-09T16:08:39.266Z,47.83
2019-02-09T16:11:12.710Z,47.70
2019-02-09T16:13:45.956Z,47.10
2019-02-09T16:16:16.369Z,51.13
2019-02-09T16:18:47.450Z,54.43
2019-02-09T16:21:18.059Z,53.47
2019-02-09T16:23:49.933Z,49.53
2019-02-09T16:26:24.457Z,48.70
2019-02-09T16:28:56.046Z,55.60
2019-02-09T16:31:27.527Z,58.10
2019-02-09T16:33:59.032Z,54.20
2019-02-09T16:36:33.666Z,70.80
2019-02-09T16:39:07.626Z,61.30
2019-02-09T16:41:39.480Z,56.63
2019-02-09T16:44:14.084Z,51.50
2019-02-09T16:46:45.722Z,57.50
2019-02-09T16:49:17.498Z,65.53
2019-02-09T16:51:48.863Z,77.57
2019-02-09T16:54:20.389Z,78.97
2019-02-09T16:56:52.070Z,68.20
2019-02-09T16:59:24.136Z,68.63
2019-02-09T17:01:56.911Z,77.33
2019-02-09T17:04:33.038Z,63.27
2019-02-09T17:07:01.629Z,54.70
2019-02-09T17:09:33.495Z,53.90
2019-02-09T17:12:07.016Z,51.83
2019-02-09T17:14:38.618Z,53.33
2019-02-09T17:17:10.395Z,42.40
2019-02-09T17:19:42.571Z,47.73
2019-02-09T17:22:21.043Z,45.57
2019-02-09T17:24:53.159Z,45.43
2019-02-09T17:27:24.967Z,50.33
2019-02-09T17:29:56.509Z,46.63
2019-02-09T17:32:28.213Z,53.60
2019-02-09T17:35:03.449Z,52.60
2019-02-09T17:37:37.112Z,48.83
2019-02-09T17:40:10.930Z,45.10
2019-02-09T17:42:42.911Z,41.60
2019-02-09T17:45:23.055Z,41.77
2019-02-09T17:47:56.052Z,42.57
2019-02-09T17:50:27.872Z,47.73
2019-02-09T17:53:00.367Z,44.53
2019-02-09T17:55:33.327Z,49.07
2019-02-09T17:58:05.418Z,42.73
2019-02-09T18:00:46.143Z,51.27
2019-02-09T18:03:18.675Z,45.83
2019-02-09T18:05:50.375Z,46.70
2019-02-09T18:08:22.134Z,42.23
2019-02-09T18:10:54.171Z,41.17
2019-02-09T18:13:26.868Z,41.73
2019-02-09T18:15:58.579Z,47.77
2019-02-09T18:18:29.811Z,49.40
2019-02-09T18:21:01.638Z,90.80
2019-02-09T18:23:33.636Z,51.67
2019-02-09T18:26:05.110Z,50.77
2019-02-09T18:28:36.935Z,75.63
2019-02-09T18:31:09.463Z,53.03
2019-02-09T18:33:41.312Z,81.37
2019-02-09T18:36:13.219Z,46.20
2019-02-09T18:38:44.783Z,43.00
2019-02-09T18:41:16.540Z,44.07
2019-02-09T18:43:48.531Z,40.03
2019-02-09T18:46:19.986Z,61.17
2019-02-09T18:48:55.259Z,44.03
2019-02-09T18:51:26.867Z,58.10
2019-02-09T18:53:58.705Z,46.07
2019-02-09T18:56:30.290Z,52.80
2019-02-09T18:59:01.991Z,89.67
2019-02-09T19:01:33.849Z,122.80
2019-02-09T19:04:06.855Z,108.20
2019-02-09T19:06:38.652Z,104.70
2019-02-09T19:09:11.171Z,84.13
2019-02-09T19:11:42.874Z,76.47
2019-02-09T19:14:14.826Z,79.90
2019-02-09T19:16:46.614Z,73.00
2019-02-09T19:19:18.226Z,81.77
2019-02-09T19:21:50.011Z,69.13
2019-02-09T19:24:21.876Z,66.03
2019-02-09T19:26:53.358Z,74.43
2019-02-09T19:29:25.152Z,76.60
2019-02-09T19:31:57.214Z,82.93
2019-02-09T19:34:29.262Z,78.20
2019-02-09T19:37:04.337Z,72.80
2019-02-09T19:39:36.530Z,71.20
2019-02-09T19:42:08.300Z,72.87
2019-02-09T19:44:40.196Z,71.00
2019-02-09T19:47:12.185Z,68.57
2019-02-09T19:49:44.179Z,66.43
2019-02-09T19:52:16.288Z,71.77
2019-02-09T19:54:48.399Z,74.30
2019-02-09T19:57:20.612Z,68.30
2019-02-09T19:59:52.677Z,63.70
2019-02-09T20:02:24.823Z,58.03
2019-02-09T20:04:57.566Z,65.00
2019-02-09T20:07:29.904Z,57.70
2019-02-09T20:10:03.112Z,55.87
2019-02-09T20:12:35.223Z,45.93
2019-02-09T20:15:08.219Z,52.07
2019-02-09T20:17:41.347Z,50.33
2019-02-09T20:20:13.729Z,48.30
2019-02-09T20:22:45.591Z,39.03
2019-02-09T20:25:22.943Z,47.93
2019-02-09T20:27:57.252Z,47.20
2019-02-09T20:30:30.612Z,53.27
2019-02-09T20:33:02.399Z,43.73
2019-02-09T20:35:34.286Z,52.57
2019-02-09T20:38:06.102Z,53.10
2019-02-09T20:40:55.910Z,48.47
2019-02-09T20:43:27.717Z,53.67
2019-02-09T20:46:00.511Z,51.37
2019-02-09T20:48:32.326Z,55.47
2019-02-09T20:51:03.790Z,52.60
2019-02-09T20:53:35.532Z,55.23
2019-02-09T20:56:07.386Z,54.93
2019-02-09T20:58:39.328Z,58.40
2019-02-09T21:01:10.844Z,52.67
2019-02-09T21:03:42.591Z,50.83
2019-02-09T21:06:15.060Z,64.23
2019-02-09T21:08:46.955Z,54.93
2019-02-09T21:11:18.374Z,60.27
2019-02-09T21:13:49.995Z,49.23
2019-02-09T21:16:21.853Z,54.00
2019-02-09T21:18:53.243Z,38.33
2019-02-09T21:21:24.995Z,38.60
2019-02-09T21:23:56.891Z,45.80
2019-02-09T21:26:28.452Z,41.80
2019-02-09T21:29:00.075Z,40.77
2019-02-09T21:31:31.918Z,42.80
2019-02-09T21:34:03.799Z,41.20
2019-02-09T21:36:35.276Z,41.43
2019-02-09T21:39:10.470Z,45.20
2019-02-09T21:41:42.291Z,43.80
2019-02-09T21:44:14.179Z,41.50
2019-02-09T21:46:45.528Z,54.37
2019-02-09T21:49:17.159Z,43.23
2019-02-09T21:51:48.583Z,53.53
2019-02-09T21:54:20.374Z,48.97
2019-02-09T21:56:52.262Z,46.03
2019-02-09T21:59:23.676Z,57.63
2019-02-09T22:01:55.443Z,62.30
2019-02-09T22:04:27.366Z,61.20
2019-02-09T22:06:59.827Z,60.20
2019-02-09T22:09:31.721Z,62.90
2019-02-09T22:12:03.202Z,63.57
2019-02-09T22:14:35.204Z,63.87
2019-02-09T22:17:07.093Z,67.33
2019-02-09T22:19:38.984Z,62.93
2019-02-09T22:22:10.078Z,70.30
2019-02-09T22:24:41.685Z,59.93
2019-02-09T22:27:12.587Z,57.53
2019-02-09T22:29:43.669Z,64.77
2019-02-09T22:32:14.092Z,68.87
2019-02-09T22:34:48.863Z,59.57
2019-02-09T22:37:19.491Z,60.00
2019-02-09T22:39:51.149Z,45.53
2019-02-09T22:42:21.586Z,37.90
2019-02-09T22:44:51.914Z,43.57
2019-02-09T22:47:22.295Z,47.13
2019-02-09T22:49:52.512Z,42.47
2019-02-09T22:52:22.854Z,47.83
2019-02-09T22:54:53.522Z,53.93
2019-02-09T22:57:23.899Z,51.90
2019-02-09T22:59:54.276Z,43.67
2019-02-09T23:02:24.652Z,47.50
2019-02-09T23:05:04.894Z,51.90
2019-02-09T23:07:35.940Z,54.53
2019-02-09T23:10:15.000Z,58.07
2019-02-09T23:12:48.578Z,60.77
2019-02-09T23:15:17.280Z,60.77
2019-02-09T23:17:47.529Z,54.43
2019-02-09T23:20:17.900Z,61.03
2019-02-09T23:22:48.142Z,59.27
2019-02-09T23:25:18.457Z,59.87
2019-02-09T23:27:48.786Z,54.53
2019-02-09T23:30:19.137Z,63.47
2019-02-09T23:32:49.467Z,60.00
2019-02-09T23:35:19.989Z,64.37
2019-02-09T23:37:50.282Z,56.13
2019-02-09T23:40:20.492Z,57.50
2019-02-09T23:42:50.834Z,58.43
2019-02-09T23:45:21.183Z,52.17
2019-02-09T23:47:51.392Z,51.53
2019-02-09T23:50:21.763Z,60.80
2019-02-09T23:52:52.039Z,61.73
2019-02-09T23:55:22.578Z,61.20
2019-02-09T23:57:52.955Z,57.30
